createdAt,value
2022-10-05T00:04:10.115Z,2.60
2022-10-05T00:14:14.913Z,2.53
2022-10-05T00:24:17.410Z,2.70
2022-10-05T00:34:18.618Z,3.10
2022-10-05T00:44:19.795Z,2.58
2022-10-05T00:54:24.016Z,2.88
2022-10-05T01:04:25.188Z,2.55
2022-10-05T01:14:44.898Z,2.85
2022-10-05T01:25:02.800Z,2.33
2022-10-05T01:35:10.028Z,2.63
2022-10-05T01:45:14.594Z,2.58
2022-10-05T01:55:22.612Z,2.80
2022-10-05T02:05:34.792Z,2.63
2022-10-05T02:15:44.675Z,2.83
2022-10-05T02:25:46.418Z,2.63
2022-10-05T02:35:47.650Z,3.03
2022-10-05T02:45:53.531Z,2.92
2022-10-05T02:56:13.787Z,2.80
2022-10-05T03:06:28.094Z,3.83
2022-10-05T03:16:48.650Z,2.65
2022-10-05T03:26:52.903Z,3.67
2022-10-05T03:36:56.059Z,2.83
2022-10-05T03:47:12.524Z,3.55
2022-10-05T03:57:15.492Z,3.03
2022-10-05T04:07:37.017Z,3.13
2022-10-05T04:17:39.966Z,4.10
2022-10-05T04:27:45.628Z,3.85
2022-10-05T04:37:46.846Z,3.83
2022-10-05T04:47:52.906Z,4.25
2022-10-05T04:58:02.844Z,4.10
2022-10-05T05:08:19.456Z,3.30
2022-10-05T05:18:26.183Z,3.65
2022-10-05T05:28:36.044Z,3.30
2022-10-05T05:38:55.813Z,4.30
2022-10-05T05:48:57.084Z,3.88
2022-10-05T05:59:24.814Z,3.72
2022-10-05T06:09:28.118Z,3.45
2022-10-05T06:19:29.316Z,3.75
2022-10-05T06:29:49.425Z,3.50
2022-10-05T06:39:50.722Z,3.10
2022-10-05T06:50:00.735Z,3.38
2022-10-05T07:00:03.750Z,3.30
2022-10-05T07:10:14.308Z,2.65
2022-10-05T07:20:21.321Z,3.28
2022-10-05T07:30:22.514Z,3.10
2022-10-05T07:40:37.847Z,2.60
2022-10-05T07:50:42.184Z,2.45
2022-10-05T08:00:47.246Z,2.63
2022-10-05T08:10:49.144Z,2.17
2022-10-05T08:20:52.158Z,2.40
2022-10-05T08:30:53.556Z,2.20
2022-10-05T08:41:13.426Z,2.40
2022-10-05T08:51:27.902Z,1.63
2022-10-05T09:01:32.283Z,1.90
2022-10-05T09:11:52.694Z,1.83
2022-10-05T09:21:57.796Z,1.90
2022-10-05T09:32:16.459Z,1.92
2022-10-05T09:42:33.841Z,1.30
2022-10-05T09:52:45.538Z,1.40
2022-10-05T10:02:50.111Z,1.10
2022-10-05T10:12:54.257Z,1.20
2022-10-05T10:22:58.466Z,1.48
2022-10-05T10:33:15.530Z,1.42
2022-10-05T10:43:26.410Z,1.35
2022-10-05T10:53:39.283Z,1.77
2022-10-05T11:03:59.581Z,1.40
2022-10-05T11:14:21.119Z,1.63
2022-10-05T11:24:45.392Z,1.75
2022-10-05T11:35:05.765Z,1.02
2022-10-05T11:45:15.237Z,2.17
2022-10-05T11:55:35.243Z,0.90
2022-10-05T12:05:46.931Z,0.80
2022-10-05T12:15:53.827Z,0.82
2022-10-05T12:26:02.181Z,0.90
2022-10-05T12:37:03.134Z,0.77
2022-10-05T12:47:10.603Z,0.70
2022-10-05T12:57:18.147Z,0.77
2022-10-05T13:07:48.686Z,0.90
2022-10-05T13:18:08.568Z,1.02
2022-10-05T13:28:15.359Z,0.65
2022-10-05T13:38:22.751Z,0.88
2022-10-05T13:48:35.482Z,0.80
2022-10-05T13:58:47.683Z,0.90
2022-10-05T14:08:51.776Z,1.20
2022-10-05T14:18:56.014Z,1.02
2022-10-05T14:29:01.341Z,1.08
2022-10-05T14:39:04.944Z,0.85
2022-10-05T14:49:21.353Z,0.95
2022-10-05T14:59:28.746Z,0.80
2022-10-05T15:09:32.981Z,0.60
2022-10-05T15:19:34.173Z,1.33
2022-10-05T15:29:36.102Z,0.90
2022-10-05T15:39:40.807Z,0.80
2022-10-05T15:49:41.944Z,0.93
2022-10-05T16:00:03.952Z,1.08
2022-10-05T16:10:16.053Z,1.10
2022-10-05T16:20:17.219Z,1.23
2022-10-05T16:30:20.795Z,1.13
2022-10-05T16:40:28.397Z,1.35
2022-10-05T16:50:49.390Z,1.37
2022-10-05T17:01:00.799Z,2.17
2022-10-05T17:11:21.009Z,1.83
2022-10-05T17:21:22.790Z,2.03
2022-10-05T17:31:25.484Z,1.35
2022-10-05T17:41:30.260Z,1.42
2022-10-05T17:51:50.280Z,1.88
2022-10-05T18:02:10.352Z,1.13
2022-10-05T18:12:24.236Z,1.58
2022-10-05T18:22:26.731Z,1.65
2022-10-05T18:32:34.622Z,1.13
2022-10-05T18:42:54.191Z,1.43
2022-10-05T18:52:58.441Z,1.25
2022-10-05T19:03:01.385Z,1.40
2022-10-05T19:13:21.462Z,1.27
2022-10-05T19:23:26.011Z,1.65
2022-10-05T19:33:30.238Z,1.50
2022-10-05T19:43:31.557Z,1.67
2022-10-05T19:53:37.483Z,1.80
2022-10-05T20:03:40.944Z,1.67
2022-10-05T20:13:55.044Z,1.60
2022-10-05T20:24:09.112Z,1.50
2022-10-05T20:34:10.487Z,1.02
2022-10-05T20:44:11.944Z,1.17
2022-10-05T20:54:13.097Z,1.55
2022-10-05T21:04:21.237Z,0.90
2022-10-05T21:14:28.047Z,1.03
2022-10-05T21:24:29.204Z,1.33
2022-10-05T21:34:30.405Z,0.60
2022-10-05T21:44:31.633Z,1.10
2022-10-05T21:54:32.952Z,1.50
2022-10-05T22:04:34.141Z,1.20
2022-10-05T22:14:35.290Z,1.10
2022-10-05T22:24:36.456Z,1.10
2022-10-05T22:34:37.659Z,0.50
2022-10-05T22:44:40.240Z,0.73
2022-10-05T22:54:41.483Z,0.70
2022-10-05T23:04:42.752Z,0.32
2022-10-05T23:14:43.908Z,0.47
2022-10-05T23:24:46.366Z,0.88
2022-10-05T23:34:47.516Z,0.70
2022-10-05T23:44:48.689Z,1.05
2022-10-05T23:54:49.857Z,0.77
